Dong Fang Chun — BRZL — position and weather

sailwx.info

Track history (hours):
 
Tides and Currents Weather Stations Pressure Air Temp Water Temp Dewpoint Dewpoint Depression Visibility Wind Speed Wind Dir Waves Ship Positions

Dong Fang Chun

Last reported at 2015-Mar-27 11:24 UTC. Time now 2015-Mar-27 22:11 UTC.
Position N 22°14' E 113°35'.

Length 23 m; draft 1.4 m.

Type: High speed craft. MMSI: 412461320.

Date/timePositionNaut miles runAvg speedWind from/ knotsBaromVisibWave heightAir tempDewpointWater temp
2015-Mar-27 11:24N 22°14' E 113°35'1921.3
2015-Mar-27 10:29N 22°26' E 113°52'1 0.8
2015-Mar-27 09:33N 22°26' E 113°53'3 1.0
2015-Mar-27 06:33N 22°29' E 113°55'2315.8
2015-Mar-27 05:06N 22°14' E 113°35'2315.0
2015-Mar-27 03:33N 22°29' E 113°55'0 0.0
2015-Mar-27 00:33N 22°29' E 113°55'0 0.1
2015-Mar-26 23:33N 22°29' E 113°55'4 0.2
2015-Mar-26 08:15N 22°25' E 113°53'4 5.3
2015-Mar-26 07:33N 22°29' E 113°55'0 0.0
2015-Mar-25 20:05N 22°29' E 113°55'0 0.0
2015-Mar-24 08:33N 22°28' E 113°55'0 0.1
2015-Mar-24 05:33N 22°29' E 113°55'8 3.7
2015-Mar-24 03:26N 22°23' E 113°49'7 7.4
2015-Mar-24 02:33N 22°27' E 113°54'6 3.1
2015-Mar-24 00:28N 22°23' E 113°49'8 8.4
2015-Mar-23 23:33N 22°29' E 113°55'2 0.2
2015-Mar-23 11:33N 22°26' E 113°54'19 9.2
2015-Mar-23 09:29N 22°16' E 113°37'2123.0
2015-Mar-23 08:33N 22°29' E 113°55'2115.3
2015-Mar-23 07:11N 22°15' E 113°37'2112.9
2015-Mar-23 05:33N 22°29' E 113°55'2320.0
2015-Mar-23 04:25N 22°14' E 113°35'1715.9
2015-Mar-23 03:20N 22°24' E 113°51'4 5.2
2015-Mar-23 02:34N 22°27' E 113°54'5 2.2
2015-Mar-23 00:25N 22°23' E 113°50'7 8.0
2015-Mar-22 23:34N 22°29' E 113°55'0 0.0
2015-Mar-22 13:29N 22°29' E 113°55'2319.5
2015-Mar-22 12:19N 22°14' E 113°36'2016.6
2015-Mar-22 11:05N 22°26' E 113°53'0 0.8
2015-Mar-22 10:34N 22°26' E 113°53'20 6.6
2015-Mar-22 07:33N 22°14' E 113°36'2322.7
2015-Mar-22 06:33N 22°28' E 113°55'0 0.0
2015-Mar-22 03:33N 22°28' E 113°55'2315.9
2015-Mar-22 02:06N 22°14' E 113°35'2315.0
2015-Mar-22 00:33N 22°29' E 113°55'0 0.2
2015-Mar-21 23:33N 22°29' E 113°55'0 0.0
2015-Mar-21 13:12N 22°29' E 113°55'2320.7
2015-Mar-21 12:07N 22°14' E 113°36'1912.0
2015-Mar-21 10:31N 22°25' E 113°53'1 0.9
2015-Mar-21 09:33N 22°26' E 113°53'19 9.2
2015-Mar-21 07:32N 22°15' E 113°37'2121.6
2015-Mar-21 06:33N 22°29' E 113°55'2015.5
2015-Mar-21 05:16N 22°16' E 113°38'2011.7
2015-Mar-21 03:33N 22°29' E 113°55'0 0.0
2015-Mar-21 00:33N 22°29' E 113°55'0 0.1
2015-Mar-20 23:33N 22°29' E 113°55'0 0.0
2015-Mar-20 11:16N 22°29' E 113°55'2119.5
2015-Mar-20 10:12N 22°15' E 113°37'21 5.7
2015-Mar-20 06:33N 22°29' E 113°55'0 0.0
2015-Mar-20 03:09N 22°29' E 113°55'0 0.0
2015-Mar-20 02:33N 22°29' E 113°55'0 0.0
2015-Mar-20 01:33N 22°29' E 113°55'0 0.0
2015-Mar-20 00:33N 22°29' E 113°55'0 0.0
2015-Mar-19 23:33N 22°29' E 113°55'2 0.2
2015-Mar-19 11:34N 22°27' E 113°54'19 9.7
2015-Mar-19 09:33N 22°16' E 113°37'2121.3
2015-Mar-19 08:33N 22°29' E 113°55'0 0.2
2015-Mar-19 07:33N 22°29' E 113°55'0 0.0
2015-Mar-19 06:31N 22°29' E 113°55'5 1.5
2015-Mar-19 03:33N 22°25' E 113°52'5 0.3
2015-Mar-18 13:11N 22°29' E 113°55'3 1.3
2015-Mar-18 10:28N 22°26' E 113°53'1 1.0
2015-Mar-18 09:34N 22°26' E 113°53'2 0.8
2015-Mar-18 06:33N 22°28' E 113°55'0 0.0
2015-Mar-18 03:33N 22°28' E 113°55'0 0.1
2015-Mar-18 00:32N 22°29' E 113°55'0 0.0
2015-Mar-17 13:12N 22°29' E 113°55'  
Track history (hours):
 
Tides and Currents Weather Stations Pressure Air Temp Water Temp Dewpoint Dewpoint Depression Visibility Wind Speed Wind Dir Waves Ship Positions

Dong Fang Chun

Last reported at 2015-Mar-27 11:24 UTC. Time now 2015-Mar-27 22:11 UTC.
Position N 22°14' E 113°35'.

Length 23 m; draft 1.4 m.

Type: High speed craft. MMSI: 412461320.

Date/timePositionNaut miles runAvg speedWind from/ knotsBaromVisibWave heightAir tempDewpointWater temp
2015-Mar-27 11:24N 22°14' E 113°35'1921.3
2015-Mar-27 10:29N 22°26' E 113°52'1 0.8
2015-Mar-27 09:33N 22°26' E 113°53'3 1.0
2015-Mar-27 06:33N 22°29' E 113°55'2315.8
2015-Mar-27 05:06N 22°14' E 113°35'2315.0
2015-Mar-27 03:33N 22°29' E 113°55'0 0.0
2015-Mar-27 00:33N 22°29' E 113°55'0 0.1
2015-Mar-26 23:33N 22°29' E 113°55'4 0.2
2015-Mar-26 08:15N 22°25' E 113°53'4 5.3
2015-Mar-26 07:33N 22°29' E 113°55'0 0.0
2015-Mar-25 20:05N 22°29' E 113°55'0 0.0
2015-Mar-24 08:33N 22°28' E 113°55'0 0.1
2015-Mar-24 05:33N 22°29' E 113°55'8 3.7
2015-Mar-24 03:26N 22°23' E 113°49'7 7.4
2015-Mar-24 02:33N 22°27' E 113°54'6 3.1
2015-Mar-24 00:28N 22°23' E 113°49'8 8.4
2015-Mar-23 23:33N 22°29' E 113°55'2 0.2
2015-Mar-23 11:33N 22°26' E 113°54'19 9.2
2015-Mar-23 09:29N 22°16' E 113°37'2123.0
2015-Mar-23 08:33N 22°29' E 113°55'2115.3
2015-Mar-23 07:11N 22°15' E 113°37'2112.9
2015-Mar-23 05:33N 22°29' E 113°55'2320.0
2015-Mar-23 04:25N 22°14' E 113°35'1715.9
2015-Mar-23 03:20N 22°24' E 113°51'4 5.2
2015-Mar-23 02:34N 22°27' E 113°54'5 2.2
2015-Mar-23 00:25N 22°23' E 113°50'7 8.0
2015-Mar-22 23:34N 22°29' E 113°55'0 0.0
2015-Mar-22 13:29N 22°29' E 113°55'2319.5
2015-Mar-22 12:19N 22°14' E 113°36'2016.6
2015-Mar-22 11:05N 22°26' E 113°53'0 0.8
2015-Mar-22 10:34N 22°26' E 113°53'20 6.6
2015-Mar-22 07:33N 22°14' E 113°36'2322.7
2015-Mar-22 06:33N 22°28' E 113°55'0 0.0
2015-Mar-22 03:33N 22°28' E 113°55'2315.9
2015-Mar-22 02:06N 22°14' E 113°35'2315.0
2015-Mar-22 00:33N 22°29' E 113°55'0 0.2
2015-Mar-21 23:33N 22°29' E 113°55'0 0.0
2015-Mar-21 13:12N 22°29' E 113°55'2320.7
2015-Mar-21 12:07N 22°14' E 113°36'1912.0
2015-Mar-21 10:31N 22°25' E 113°53'1 0.9
2015-Mar-21 09:33N 22°26' E 113°53'19 9.2
2015-Mar-21 07:32N 22°15' E 113°37'2121.6
2015-Mar-21 06:33N 22°29' E 113°55'2015.5
2015-Mar-21 05:16N 22°16' E 113°38'2011.7
2015-Mar-21 03:33N 22°29' E 113°55'0 0.0
2015-Mar-21 00:33N 22°29' E 113°55'0 0.1
2015-Mar-20 23:33N 22°29' E 113°55'0 0.0
2015-Mar-20 11:16N 22°29' E 113°55'2119.5
2015-Mar-20 10:12N 22°15' E 113°37'21 5.7
2015-Mar-20 06:33N 22°29' E 113°55'0 0.0
2015-Mar-20 03:09N 22°29' E 113°55'0 0.0
2015-Mar-20 02:33N 22°29' E 113°55'0 0.0
2015-Mar-20 01:33N 22°29' E 113°55'0 0.0
2015-Mar-20 00:33N 22°29' E 113°55'0 0.0
2015-Mar-19 23:33N 22°29' E 113°55'2 0.2
2015-Mar-19 11:34N 22°27' E 113°54'19 9.7
2015-Mar-19 09:33N 22°16' E 113°37'2121.3
2015-Mar-19 08:33N 22°29' E 113°55'0 0.2
2015-Mar-19 07:33N 22°29' E 113°55'0 0.0
2015-Mar-19 06:31N 22°29' E 113°55'5 1.5
2015-Mar-19 03:33N 22°25' E 113°52'5 0.3
2015-Mar-18 13:11N 22°29' E 113°55'3 1.3
2015-Mar-18 10:28N 22°26' E 113°53'1 1.0
2015-Mar-18 09:34N 22°26' E 113°53'2 0.8
2015-Mar-18 06:33N 22°28' E 113°55'0 0.0
2015-Mar-18 03:33N 22°28' E 113°55'0 0.1
2015-Mar-18 00:32N 22°29' E 113°55'0 0.0
2015-Mar-17 13:12N 22°29' E 113°55'  

Dump ship's entire track history